createdAt,value
2019-03-24T00:01:13.390Z,29.90
2019-03-24T00:03:41.937Z,29.70
2019-03-24T00:06:10.333Z,29.80
2019-03-24T00:08:39.463Z,29.60
2019-03-24T00:11:07.745Z,29.50
2019-03-24T00:13:36.026Z,29.40
2019-03-24T00:16:04.534Z,29.50
2019-03-24T00:18:33.042Z,29.50
2019-03-24T00:21:01.292Z,29.50
2019-03-24T00:23:29.818Z,29.30
2019-03-24T00:25:58.065Z,29.30
2019-03-24T00:28:26.591Z,29.20
2019-03-24T00:30:54.850Z,29.30
2019-03-24T00:33:23.124Z,29.20
2019-03-24T00:35:51.387Z,29.10
2019-03-24T00:38:19.661Z,29.10
2019-03-24T00:40:47.916Z,29.00
2019-03-24T00:43:16.461Z,29.00
2019-03-24T00:45:44.747Z,29.00
2019-03-24T00:48:13.033Z,29.00
2019-03-24T00:50:41.313Z,29.00
2019-03-24T00:53:09.597Z,28.90
2019-03-24T00:55:37.896Z,29.00
2019-03-24T00:58:06.173Z,29.00
2019-03-24T01:00:48.611Z,29.00
2019-03-24T01:03:16.934Z,29.00
2019-03-24T01:05:45.392Z,29.00
2019-03-24T01:08:13.784Z,29.00
2019-03-24T01:10:42.088Z,29.00
2019-03-24T01:13:11.864Z,29.10
2019-03-24T01:15:47.655Z,29.20
2019-03-24T01:18:10.640Z,29.20
2019-03-24T01:20:38.899Z,29.20
2019-03-24T01:23:07.194Z,29.20
2019-03-24T01:25:35.453Z,29.20
2019-03-24T01:28:03.784Z,29.30
2019-03-24T01:30:32.291Z,29.30
2019-03-24T01:33:00.576Z,29.30
2019-03-24T01:35:29.075Z,29.40
2019-03-24T01:37:57.375Z,29.60
2019-03-24T01:40:25.873Z,29.60
2019-03-24T01:42:54.154Z,29.60
2019-03-24T01:45:22.431Z,29.80
2019-03-24T01:47:50.732Z,29.70
2019-03-24T01:50:19.036Z,29.80
2019-03-24T01:52:47.555Z,29.80
2019-03-24T01:55:15.896Z,29.70
2019-03-24T01:57:44.220Z,29.70
2019-03-24T02:00:12.731Z,29.80
2019-03-24T02:02:41.018Z,29.80
2019-03-24T02:05:09.517Z,29.80
2019-03-24T02:07:37.802Z,29.90
2019-03-24T02:10:07.608Z,29.90
2019-03-24T02:12:35.953Z,29.90
2019-03-24T02:15:06.429Z,29.90
2019-03-24T02:17:34.703Z,30.00
2019-03-24T02:20:02.980Z,30.00
2019-03-24T02:22:31.283Z,30.00
2019-03-24T02:24:59.543Z,30.00
2019-03-24T02:27:27.828Z,30.10
2019-03-24T02:29:56.100Z,30.00
2019-03-24T02:32:24.647Z,30.10
2019-03-24T02:34:52.986Z,30.20
2019-03-24T02:37:21.234Z,30.20
2019-03-24T02:39:49.507Z,30.30
2019-03-24T02:42:17.788Z,30.30
2019-03-24T02:44:46.063Z,30.40
2019-03-24T02:47:14.337Z,30.50
2019-03-24T02:49:42.869Z,30.40
2019-03-24T02:52:11.179Z,30.50
2019-03-24T02:54:39.456Z,30.50
2019-03-24T02:57:07.821Z,30.50
2019-03-24T02:59:36.091Z,30.70
2019-03-24T03:02:04.618Z,30.70
2019-03-24T03:04:32.884Z,30.70
2019-03-24T03:07:01.158Z,30.70
2019-03-24T03:09:29.433Z,30.90
2019-03-24T03:11:57.929Z,30.90
2019-03-24T03:14:26.188Z,31.00
2019-03-24T03:16:54.693Z,31.00
2019-03-24T03:19:23.008Z,31.10
2019-03-24T03:21:51.258Z,31.20
2019-03-24T03:24:19.551Z,31.20
2019-03-24T03:26:47.854Z,31.20
2019-03-24T03:29:16.127Z,31.30
2019-03-24T03:31:44.400Z,31.30
2019-03-24T03:34:12.690Z,31.30
2019-03-24T03:36:41.209Z,31.30
2019-03-24T03:39:09.454Z,31.40
2019-03-24T03:41:37.886Z,31.40
2019-03-24T03:44:06.146Z,31.40
2019-03-24T03:46:34.666Z,31.50
2019-03-24T03:49:03.007Z,31.50
2019-03-24T03:51:31.601Z,31.50
2019-03-24T03:53:59.907Z,31.60
2019-03-24T03:56:28.412Z,31.60
2019-03-24T03:58:56.775Z,31.70
2019-03-24T04:01:25.385Z,31.80
2019-03-24T04:03:53.666Z,31.90
2019-03-24T04:06:21.998Z,31.90
2019-03-24T04:08:50.347Z,32.00
2019-03-24T04:11:18.601Z,32.00
2019-03-24T04:13:47.146Z,32.10
2019-03-24T04:16:15.661Z,32.00
2019-03-24T04:18:43.937Z,32.10
2019-03-24T04:21:12.444Z,32.10
2019-03-24T04:23:40.787Z,32.10
2019-03-24T04:26:09.101Z,32.80
2019-03-24T04:28:37.399Z,32.20
2019-03-24T04:31:05.896Z,32.30
2019-03-24T04:33:34.215Z,32.30
2019-03-24T04:36:02.729Z,32.40
2019-03-24T04:38:30.997Z,32.40
2019-03-24T04:40:59.505Z,32.40
2019-03-24T04:43:28.002Z,32.50
2019-03-24T04:45:56.284Z,32.50
2019-03-24T04:48:24.625Z,32.60
2019-03-24T04:50:52.901Z,32.60
2019-03-24T04:53:21.287Z,32.60
2019-03-24T04:55:49.555Z,32.60
2019-03-24T04:58:17.826Z,32.60
2019-03-24T05:00:46.072Z,32.70
2019-03-24T05:03:14.345Z,32.80
2019-03-24T05:05:42.592Z,32.80
2019-03-24T05:08:10.870Z,32.80
2019-03-24T05:10:39.133Z,32.90
2019-03-24T05:13:07.417Z,33.00
2019-03-24T05:15:35.907Z,32.90
2019-03-24T05:18:04.433Z,33.00
2019-03-24T05:20:32.723Z,33.00
2019-03-24T05:23:01.285Z,33.00
2019-03-24T05:25:29.554Z,33.10
2019-03-24T05:27:57.815Z,33.10
2019-03-24T05:30:26.079Z,33.10
2019-03-24T05:32:54.365Z,33.20
2019-03-24T05:35:22.865Z,33.20
2019-03-24T05:37:51.140Z,33.30
2019-03-24T05:40:22.092Z,33.40
2019-03-24T05:42:50.360Z,33.30
2019-03-24T05:45:18.849Z,33.40
2019-03-24T05:47:47.133Z,33.50
2019-03-24T05:50:15.372Z,33.50
2019-03-24T05:52:43.895Z,33.60
2019-03-24T05:55:12.397Z,33.50
2019-03-24T05:57:40.699Z,33.60
2019-03-24T06:00:09.521Z,33.60
2019-03-24T06:02:37.782Z,33.60
2019-03-24T06:05:06.216Z,33.70
2019-03-24T06:07:34.472Z,33.70
2019-03-24T06:10:03.167Z,33.60
2019-03-24T06:12:31.413Z,33.70
2019-03-24T06:14:59.704Z,33.80
2019-03-24T06:17:27.964Z,33.90
2019-03-24T06:19:56.281Z,33.80
2019-03-24T06:22:24.570Z,33.90
2019-03-24T06:24:53.109Z,34.00
2019-03-24T06:27:21.381Z,34.10
2019-03-24T06:29:49.713Z,34.20
2019-03-24T06:32:17.985Z,34.10
2019-03-24T06:34:46.506Z,34.10
2019-03-24T06:37:14.769Z,34.20
2019-03-24T06:39:43.067Z,34.10
2019-03-24T06:42:11.317Z,34.20
2019-03-24T06:44:39.574Z,34.10
2019-03-24T06:47:07.846Z,34.10
2019-03-24T06:49:36.111Z,34.10
2019-03-24T06:52:04.644Z,34.20
2019-03-24T06:54:33.137Z,34.30
2019-03-24T06:57:01.416Z,34.30
2019-03-24T06:59:29.709Z,34.40
2019-03-24T07:01:57.980Z,34.40
2019-03-24T07:04:26.232Z,34.30
2019-03-24T07:06:54.497Z,34.30
2019-03-24T07:09:22.998Z,34.40
2019-03-24T07:11:51.267Z,34.40
2019-03-24T07:14:19.524Z,34.40
2019-03-24T07:16:47.789Z,34.50
2019-03-24T07:19:16.293Z,34.50
2019-03-24T07:21:44.805Z,34.50
2019-03-24T07:24:13.329Z,34.50
2019-03-24T07:26:41.569Z,34.50
2019-03-24T07:29:09.836Z,34.50
2019-03-24T07:31:38.085Z,34.60
2019-03-24T07:34:06.328Z,34.60
2019-03-24T07:36:34.597Z,34.80
2019-03-24T07:39:03.334Z,34.70
2019-03-24T07:41:31.605Z,34.80
2019-03-24T07:43:59.870Z,34.80
2019-03-24T07:46:28.461Z,34.80
2019-03-24T07:48:56.712Z,34.90
2019-03-24T07:51:25.206Z,34.90
2019-03-24T07:53:53.713Z,34.90
2019-03-24T07:56:22.033Z,35.00
2019-03-24T07:58:50.303Z,35.00
2019-03-24T08:01:18.543Z,35.10
2019-03-24T08:03:46.796Z,35.00
2019-03-24T08:06:15.137Z,35.40
2019-03-24T08:08:44.510Z,35.50
2019-03-24T08:11:12.949Z,35.60
2019-03-24T08:13:52.657Z,35.70
2019-03-24T08:16:11.174Z,35.70
2019-03-24T08:18:39.425Z,35.60
2019-03-24T08:21:07.933Z,35.50
2019-03-24T08:23:36.177Z,35.40
2019-03-24T08:26:04.605Z,35.40
2019-03-24T08:28:32.951Z,35.90
2019-03-24T08:31:01.207Z,35.40
2019-03-24T08:33:29.444Z,35.40
2019-03-24T08:35:57.716Z,35.40
2019-03-24T08:38:25.986Z,35.40
2019-03-24T08:40:54.234Z,35.50
2019-03-24T08:43:22.496Z,35.50
2019-03-24T08:45:50.761Z,35.50
2019-03-24T08:48:19.036Z,35.70
2019-03-24T08:50:47.300Z,35.50
2019-03-24T08:53:15.566Z,35.40
2019-03-24T08:55:43.816Z,35.50
2019-03-24T08:58:12.352Z,35.40
2019-03-24T09:00:40.593Z,35.30
2019-03-24T09:03:08.898Z,35.00
2019-03-24T09:05:37.149Z,35.30
2019-03-24T09:08:05.432Z,35.20
2019-03-24T09:10:33.689Z,35.10
2019-03-24T09:13:02.180Z,35.40
2019-03-24T09:15:30.454Z,35.40
2019-03-24T09:17:58.709Z,35.40
2019-03-24T09:20:27.234Z,35.00
2019-03-24T09:22:55.733Z,34.40
2019-03-24T09:25:24.036Z,34.00
2019-03-24T09:27:52.361Z,33.70
2019-03-24T09:30:28.479Z,33.60
2019-03-24T09:32:56.800Z,32.70
2019-03-24T09:35:25.045Z,32.60
2019-03-24T09:37:53.313Z,32.40
2019-03-24T09:40:26.735Z,32.70
2019-03-24T09:42:55.874Z,32.50
2019-03-24T09:45:24.398Z,32.00
2019-03-24T09:47:52.675Z,32.00
2019-03-24T09:50:21.004Z,31.90
2019-03-24T09:52:49.530Z,32.10
2019-03-24T09:55:17.781Z,30.40
2019-03-24T09:57:46.050Z,31.70
2019-03-24T10:00:14.302Z,31.70
2019-03-24T10:02:42.568Z,31.80
2019-03-24T10:05:10.836Z,31.30
2019-03-24T10:07:39.113Z,31.30
2019-03-24T10:10:07.530Z,32.00
2019-03-24T10:12:35.781Z,32.30
2019-03-24T10:15:05.713Z,33.40
2019-03-24T10:17:34.209Z,33.30
2019-03-24T10:20:02.479Z,32.00
2019-03-24T10:22:31.038Z,32.50
2019-03-24T10:24:59.324Z,32.50
2019-03-24T10:27:27.580Z,32.50
2019-03-24T10:29:55.844Z,32.40
2019-03-24T10:32:24.127Z,32.30
2019-03-24T10:34:52.396Z,32.80
2019-03-24T10:37:20.667Z,33.20
2019-03-24T10:39:49.018Z,33.00
2019-03-24T10:42:17.297Z,32.70
2019-03-24T10:44:45.545Z,33.70
2019-03-24T10:47:13.804Z,34.50
2019-03-24T10:49:42.064Z,32.90
2019-03-24T10:52:10.341Z,32.00
2019-03-24T10:54:38.834Z,33.10
2019-03-24T10:57:07.083Z,33.00
2019-03-24T10:59:35.352Z,31.70
2019-03-24T11:02:03.774Z,32.90
2019-03-24T11:04:32.040Z,34.10
2019-03-24T11:07:00.357Z,34.00
2019-03-24T11:09:28.680Z,34.50
2019-03-24T11:11:56.932Z,33.60
2019-03-24T11:14:25.213Z,33.30
2019-03-24T11:16:53.534Z,34.30
2019-03-24T11:19:21.817Z,34.70
2019-03-24T11:21:50.402Z,35.30
2019-03-24T11:24:18.656Z,35.30
2019-03-24T11:26:47.185Z,34.80
2019-03-24T11:29:15.428Z,32.70
2019-03-24T11:31:43.724Z,34.40
2019-03-24T11:34:12.020Z,33.90
2019-03-24T11:36:40.305Z,31.40
2019-03-24T11:39:08.801Z,31.70
2019-03-24T11:41:37.059Z,31.90
2019-03-24T11:44:05.328Z,31.10
2019-03-24T11:46:33.582Z,31.90
2019-03-24T11:49:01.854Z,32.30
2019-03-24T11:51:30.133Z,31.70
2019-03-24T11:53:58.643Z,31.50
2019-03-24T11:56:27.134Z,31.40
2019-03-24T11:58:55.448Z,31.80
2019-03-24T12:01:23.860Z,31.10
2019-03-24T12:03:52.137Z,29.10
2019-03-24T12:06:20.392Z,28.40
2019-03-24T12:08:48.665Z,28.20
2019-03-24T12:11:16.949Z,26.40
2019-03-24T12:13:45.269Z,26.40
2019-03-24T12:16:13.553Z,25.50
2019-03-24T12:18:41.839Z,26.00
2019-03-24T12:21:10.119Z,25.70
2019-03-24T12:23:38.368Z,26.20
2019-03-24T12:26:06.617Z,25.90
2019-03-24T12:28:34.901Z,26.00
2019-03-24T12:31:03.220Z,26.00
2019-03-24T12:33:31.472Z,26.20
2019-03-24T12:35:59.741Z,27.50
2019-03-24T12:38:28.057Z,28.00
2019-03-24T12:40:56.329Z,28.20
2019-03-24T12:43:24.576Z,27.70
2019-03-24T12:45:52.883Z,27.50
2019-03-24T12:48:21.445Z,27.00
2019-03-24T12:50:49.813Z,28.80
2019-03-24T12:53:18.073Z,28.50
2019-03-24T12:55:46.346Z,27.70
2019-03-24T12:58:14.600Z,29.50
2019-03-24T13:00:42.917Z,28.10
2019-03-24T13:03:11.429Z,29.10
2019-03-24T13:05:39.682Z,27.50
2019-03-24T13:08:15.854Z,27.30
2019-03-24T13:10:44.112Z,27.40
2019-03-24T13:13:12.395Z,28.00
2019-03-24T13:15:40.916Z,27.40
2019-03-24T13:18:09.177Z,28.00
2019-03-24T13:20:38.740Z,28.10
2019-03-24T13:23:07.177Z,28.10
2019-03-24T13:25:36.450Z,28.90
2019-03-24T13:28:04.801Z,28.20
2019-03-24T13:30:33.121Z,28.40
2019-03-24T13:33:01.570Z,28.50
2019-03-24T13:35:29.823Z,28.10
2019-03-24T13:37:58.319Z,28.40
2019-03-24T13:40:26.904Z,28.50
2019-03-24T13:42:55.518Z,27.90
2019-03-24T13:45:23.764Z,28.10
2019-03-24T13:47:52.032Z,27.60
2019-03-24T13:50:30.667Z,28.80
2019-03-24T13:52:50.264Z,28.80
2019-03-24T13:55:18.753Z,29.10
2019-03-24T13:57:46.998Z,29.00
2019-03-24T14:00:17.054Z,28.20
2019-03-24T14:02:45.358Z,28.90
2019-03-24T14:05:13.618Z,29.30
2019-03-24T14:07:41.922Z,28.70
2019-03-24T14:10:10.201Z,28.70
2019-03-24T14:12:38.732Z,28.60
2019-03-24T14:15:07.785Z,27.70
2019-03-24T14:17:36.193Z,26.50
2019-03-24T14:20:06.449Z,25.30
2019-03-24T14:22:34.994Z,25.60
2019-03-24T14:25:04.193Z,25.80
2019-03-24T14:27:32.468Z,24.90
2019-03-24T14:30:00.969Z,25.90
2019-03-24T14:32:29.246Z,26.20
2019-03-24T14:34:57.533Z,26.20
2019-03-24T14:37:25.808Z,26.40
2019-03-24T14:39:54.299Z,26.60
2019-03-24T14:42:22.572Z,27.30
2019-03-24T14:44:50.847Z,27.00
2019-03-24T14:47:19.352Z,27.40
2019-03-24T14:49:47.604Z,27.50
2019-03-24T14:52:15.866Z,27.60
2019-03-24T14:54:44.112Z,27.50
2019-03-24T14:57:12.396Z,28.00
2019-03-24T14:59:40.889Z,28.10
2019-03-24T15:02:09.137Z,28.50
2019-03-24T15:04:37.734Z,27.90
2019-03-24T15:07:06.016Z,28.40
2019-03-24T15:09:34.285Z,28.40
2019-03-24T15:12:02.553Z,28.40
2019-03-24T15:14:30.829Z,29.00
2019-03-24T15:16:59.325Z,28.70
2019-03-24T15:19:27.833Z,28.70
2019-03-24T15:21:56.333Z,28.90
2019-03-24T15:24:24.624Z,29.20
2019-03-24T15:26:53.149Z,29.00
2019-03-24T15:29:21.679Z,29.30
2019-03-24T15:31:49.968Z,29.10
2019-03-24T15:34:18.224Z,28.80
2019-03-24T15:36:46.482Z,28.80
2019-03-24T15:39:15.362Z,28.60
2019-03-24T15:41:43.749Z,28.70
2019-03-24T15:44:12.049Z,29.10
2019-03-24T15:46:40.325Z,28.80
2019-03-24T15:49:08.612Z,29.30
2019-03-24T15:51:36.896Z,29.40
2019-03-24T15:54:05.261Z,29.00
2019-03-24T15:56:33.509Z,29.30
2019-03-24T15:59:02.042Z,29.60
2019-03-24T16:01:30.310Z,29.80
2019-03-24T16:03:58.824Z,29.80
2019-03-24T16:06:27.155Z,30.20
2019-03-24T16:08:55.440Z,30.60
2019-03-24T16:11:23.748Z,30.50
2019-03-24T16:13:52.313Z,30.40
2019-03-24T16:16:22.846Z,30.30
2019-03-24T16:18:50.563Z,30.40
2019-03-24T16:21:27.327Z,29.30
2019-03-24T16:23:48.804Z,30.00
2019-03-24T16:26:17.064Z,29.90
2019-03-24T16:28:45.349Z,29.70
2019-03-24T16:31:14.013Z,29.20
2019-03-24T16:33:42.292Z,29.10
2019-03-24T16:36:10.565Z,29.00
2019-03-24T16:38:48.547Z,29.80
2019-03-24T16:41:08.901Z,29.30
2019-03-24T16:43:37.281Z,29.10
2019-03-24T16:46:05.542Z,29.50
2019-03-24T16:48:37.026Z,29.60
2019-03-24T16:51:04.047Z,29.50
2019-03-24T16:53:32.321Z,29.70
2019-03-24T16:56:00.665Z,29.80
2019-03-24T16:58:29.013Z,29.80
2019-03-24T17:00:57.286Z,29.90
2019-03-24T17:03:25.644Z,30.00
2019-03-24T17:05:54.089Z,30.00
2019-03-24T17:08:22.453Z,30.00
2019-03-24T17:10:51.011Z,30.20
2019-03-24T17:13:19.279Z,30.70
2019-03-24T17:15:47.787Z,30.70
2019-03-24T17:18:16.057Z,30.10
2019-03-24T17:20:44.345Z,30.00
2019-03-24T17:23:12.872Z,30.40
2019-03-24T17:25:41.356Z,30.40
2019-03-24T17:28:09.896Z,30.60
2019-03-24T17:30:38.197Z,30.70
2019-03-24T17:33:06.504Z,30.70
2019-03-24T17:35:34.777Z,30.50
2019-03-24T17:38:03.049Z,30.80
2019-03-24T17:40:31.303Z,31.30
2019-03-24T17:42:59.678Z,31.40
2019-03-24T17:45:28.068Z,31.50
2019-03-24T17:47:56.631Z,31.60
2019-03-24T17:50:24.901Z,32.00
2019-03-24T17:52:53.155Z,32.10
2019-03-24T17:55:27.547Z,32.40
2019-03-24T17:57:51.417Z,32.40
2019-03-24T18:00:40.285Z,32.90
2019-03-24T18:03:08.569Z,33.20
2019-03-24T18:05:36.818Z,33.30
2019-03-24T18:08:05.087Z,33.40
2019-03-24T18:10:33.353Z,34.30
2019-03-24T18:13:01.925Z,33.60
2019-03-24T18:15:30.172Z,33.60
2019-03-24T18:17:58.470Z,33.80
2019-03-24T18:20:32.714Z,33.90
2019-03-24T18:23:01.386Z,33.90
2019-03-24T18:25:29.911Z,34.00
2019-03-24T18:27:58.409Z,34.40
2019-03-24T18:30:27.286Z,34.30
2019-03-24T18:32:55.528Z,34.40
2019-03-24T18:35:25.685Z,34.40
2019-03-24T18:37:54.089Z,34.40
2019-03-24T18:40:22.336Z,34.60
2019-03-24T18:42:50.845Z,35.40
2019-03-24T18:45:20.314Z,34.80
2019-03-24T18:47:48.580Z,35.50
2019-03-24T18:50:16.824Z,34.90
2019-03-24T18:52:46.124Z,35.00
2019-03-24T18:55:14.368Z,35.00
2019-03-24T18:57:42.638Z,35.00
2019-03-24T19:00:12.059Z,35.10
2019-03-24T19:02:40.323Z,35.10
2019-03-24T19:05:08.577Z,35.20
2019-03-24T19:07:37.019Z,35.20
2019-03-24T19:10:07.042Z,35.30
2019-03-24T19:12:35.317Z,35.40
2019-03-24T19:15:04.139Z,35.40
2019-03-24T19:17:32.390Z,35.50
2019-03-24T19:20:00.648Z,35.50
2019-03-24T19:22:33.472Z,35.50
2019-03-24T19:24:58.894Z,35.60
2019-03-24T19:27:27.144Z,35.60
2019-03-24T19:29:55.425Z,35.70
2019-03-24T19:32:23.677Z,35.70
2019-03-24T19:34:51.966Z,35.70
2019-03-24T19:37:20.241Z,35.80
2019-03-24T19:39:48.502Z,35.80
2019-03-24T19:42:16.830Z,35.90
2019-03-24T19:44:45.102Z,35.90
2019-03-24T19:47:13.370Z,35.90
2019-03-24T19:49:41.719Z,36.00
2019-03-24T19:52:10.217Z,36.00
2019-03-24T19:54:38.486Z,36.00
2019-03-24T19:57:06.729Z,36.00
2019-03-24T19:59:35.008Z,36.10
2019-03-24T20:02:03.249Z,36.20
2019-03-24T20:04:31.741Z,36.20
2019-03-24T20:07:00.008Z,36.10
2019-03-24T20:09:28.264Z,36.10
2019-03-24T20:11:56.774Z,36.20
2019-03-24T20:14:25.030Z,36.20
2019-03-24T20:16:53.542Z,36.30
2019-03-24T20:19:21.793Z,36.30
2019-03-24T20:21:50.068Z,36.40
2019-03-24T20:24:18.385Z,36.50
2019-03-24T20:26:46.625Z,36.60
2019-03-24T20:29:15.153Z,36.70
2019-03-24T20:31:43.415Z,36.70
2019-03-24T20:34:11.685Z,36.90
2019-03-24T20:36:39.944Z,37.10
2019-03-24T20:39:09.050Z,37.20
2019-03-24T20:41:37.561Z,37.10
2019-03-24T20:44:05.815Z,37.20
2019-03-24T20:46:34.082Z,37.30
2019-03-24T20:49:02.597Z,37.30
2019-03-24T20:51:30.853Z,37.30
2019-03-24T20:53:59.341Z,37.30
2019-03-24T20:56:27.667Z,37.90
2019-03-24T20:58:55.937Z,37.10
2019-03-24T21:01:24.187Z,37.00
2019-03-24T21:03:52.461Z,36.90
2019-03-24T21:06:20.725Z,36.80
2019-03-24T21:08:49.229Z,36.70
2019-03-24T21:11:17.505Z,36.60
2019-03-24T21:13:45.828Z,36.40
2019-03-24T21:16:14.107Z,36.30
2019-03-24T21:18:42.384Z,36.10
2019-03-24T21:21:10.645Z,35.90
2019-03-24T21:23:38.986Z,35.70
2019-03-24T21:26:07.256Z,35.50
2019-03-24T21:28:35.508Z,35.40
2019-03-24T21:31:03.771Z,35.20
2019-03-24T21:33:32.023Z,35.00
2019-03-24T21:36:00.538Z,34.70
2019-03-24T21:38:28.808Z,34.50
2019-03-24T21:40:57.117Z,34.20
2019-03-24T21:43:25.386Z,34.00
2019-03-24T21:45:53.645Z,33.60
2019-03-24T21:48:21.923Z,33.40
2019-03-24T21:50:50.165Z,33.10
2019-03-24T21:53:18.439Z,33.00
2019-03-24T21:55:46.681Z,32.70
2019-03-24T21:58:14.944Z,32.40
2019-03-24T22:00:43.185Z,32.20
2019-03-24T22:03:11.461Z,32.00
2019-03-24T22:05:39.774Z,31.70
2019-03-24T22:08:08.049Z,31.50
2019-03-24T22:10:36.626Z,31.30
2019-03-24T22:13:04.974Z,31.10
2019-03-24T22:15:33.246Z,31.00
2019-03-24T22:18:01.504Z,30.80
2019-03-24T22:20:29.789Z,30.60
2019-03-24T22:22:58.028Z,30.40
2019-03-24T22:25:26.282Z,30.10
2019-03-24T22:27:54.552Z,30.00
2019-03-24T22:30:22.810Z,29.90
2019-03-24T22:32:51.085Z,29.60
2019-03-24T22:35:19.409Z,29.40
2019-03-24T22:37:47.673Z,29.30
2019-03-24T22:40:16.173Z,29.20
2019-03-24T22:42:44.445Z,28.90
2019-03-24T22:45:12.804Z,28.70
2019-03-24T22:47:41.297Z,28.60
2019-03-24T22:50:09.868Z,28.50
2019-03-24T22:52:38.205Z,28.50
2019-03-24T22:55:06.922Z,28.30
2019-03-24T22:57:35.430Z,28.20
2019-03-24T23:00:05.352Z,28.10
2019-03-24T23:02:33.600Z,27.90
2019-03-24T23:05:01.872Z,27.80
2019-03-24T23:07:30.448Z,27.60
2019-03-24T23:09:58.745Z,27.50
2019-03-24T23:12:27.015Z,27.30
2019-03-24T23:14:55.307Z,27.30
2019-03-24T23:17:23.591Z,27.00
2019-03-24T23:19:51.904Z,26.90
2019-03-24T23:22:20.170Z,26.80
2019-03-24T23:24:48.462Z,26.60
2019-03-24T23:27:17.045Z,26.60
2019-03-24T23:29:45.316Z,26.40
2019-03-24T23:32:13.895Z,26.30
2019-03-24T23:34:42.236Z,26.30
2019-03-24T23:37:10.590Z,26.20
2019-03-24T23:39:38.860Z,26.10
2019-03-24T23:42:07.129Z,25.90
2019-03-24T23:44:35.381Z,25.90
2019-03-24T23:47:03.698Z,25.80
2019-03-24T23:49:32.052Z,25.70
2019-03-24T23:52:00.317Z,25.70
2019-03-24T23:54:28.618Z,25.60
2019-03-24T23:56:56.957Z,25.70
2019-03-24T23:59:25.205Z,25.60
